Time;durP1;ratioP1;P1;durP2;ratioP2;P2;SDS_P1;SDS_P2;PMS_P1;PMS_P2;Temp;Humidity;BMP_temperature;BMP_pressure;BME280_temperature;BME280_humidity;BME280_pressure;Samples;Min_cycle;Max_cycle;Signal;HPM_P1;HPM_P2
2022/02/24 00:01:19;;;;;;;7.80;3.30;;;;;2.52;98221.80;;;;110603;1250;41559;-70
2022/02/24 00:03:48;;;;;;;9.50;3.20;;;;;2.60;98218.00;;;;110651;1250;41167;-70
2022/02/24 00:06:22;;;;;;;7.70;3.20;;;;;2.60;98216.00;;;;110574;1253;41204;-71
2022/02/24 00:08:52;;;;;;;7.70;3.40;;;;;2.70;98213.40;;;;110619;1253;41736;-71
2022/02/24 00:11:22;;;;;;;9.00;3.40;;;;;2.70;98208.00;;;;110521;1253;41379;-70
2022/02/24 00:13:51;;;;;;;7.20;3.10;;;;;2.70;98211.80;;;;110598;1253;42075;-70
2022/02/24 00:16:21;;;;;;;8.70;3.20;;;;;2.70;98215.80;;;;110644;1251;41188;-67
2022/02/24 00:18:51;;;;;;;7.90;3.20;;;;;2.70;98214.80;;;;110534;1253;41279;-70
2022/02/24 00:21:21;;;;;;;8.60;3.60;;;;;2.80;98215.40;;;;110343;1253;41154;-68
2022/02/24 00:23:51;;;;;;;8.40;3.60;;;;;2.80;98216.60;;;;110632;1253;41249;-70
2022/02/24 00:26:22;;;;;;;8.40;3.60;;;;;2.80;98212.60;;;;110778;1250;41296;-70
2022/02/24 00:28:52;;;;;;;8.10;3.40;;;;;2.80;98211.20;;;;110554;1251;41175;-70
2022/02/24 00:31:22;;;;;;;10.20;3.80;;;;;2.80;98216.40;;;;110716;1250;41168;-69
2022/02/24 00:33:52;;;;;;;8.70;3.80;;;;;2.80;98215.20;;;;110482;1251;41275;-71
2022/02/24 00:36:22;;;;;;;8.10;3.80;;;;;2.88;98213.20;;;;110495;1253;41154;-68
2022/02/24 00:38:51;;;;;;;7.80;3.20;;;;;2.90;98216.40;;;;110566;1253;41188;-72
2022/02/24 00:41:21;;;;;;;8.20;3.80;;;;;2.84;98223.60;;;;110555;1251;41322;-67
2022/02/24 00:43:51;;;;;;;8.40;3.50;;;;;2.80;98225.20;;;;110596;1251;41272;-67
2022/02/24 00:46:21;;;;;;;7.50;3.20;;;;;2.80;98227.00;;;;110468;1252;41276;-69
2022/02/24 00:48:51;;;;;;;7.60;3.50;;;;;2.80;98226.60;;;;110580;1253;42027;-69
2022/02/24 00:51:22;;;;;;;;;;;;;2.80;98228.40;;;;110584;1253;41162;-70
2022/02/24 00:53:52;;;;;;;8.80;4.00;;;;;2.70;98224.20;;;;110537;1253;41261;-71
2022/02/24 00:56:22;;;;;;;7.90;3.80;;;;;2.70;98228.00;;;;110461;1251;41342;-74
2022/02/24 00:58:53;;;;;;;9.50;4.10;;;;;2.78;98227.40;;;;110524;1253;41629;-70
2022/02/24 01:01:22;;;;;;;8.20;3.90;;;;;2.70;98227.20;;;;110679;1251;41156;-70
2022/02/24 01:03:52;;;;;;;9.40;3.80;;;;;2.70;98230.20;;;;110557;1250;41263;-70
2022/02/24 01:06:22;;;;;;;8.20;3.60;;;;;2.70;98231.60;;;;110555;1253;41893;-70
2022/02/24 01:08:52;;;;;;;8.70;4.00;;;;;2.70;98220.00;;;;110544;1250;41263;-69
2022/02/24 01:11:22;;;;;;;8.70;3.90;;;;;2.80;98222.00;;;;110524;1253;41261;-71
2022/02/24 01:13:53;;;;;;;9.80;3.80;;;;;2.80;98228.40;;;;110473;1253;41207;-69
2022/02/24 01:16:22;;;;;;;9.70;4.30;;;;;2.80;98227.00;;;;110552;1253;41147;-70
2022/02/24 01:18:53;;;;;;;8.70;3.90;;;;;2.80;98236.80;;;;110790;1250;41157;-69
2022/02/24 01:21:24;;;;;;;8.70;3.90;;;;;2.72;98243.00;;;;110793;1250;42389;-69
2022/02/24 01:23:54;;;;;;;10.00;3.80;;;;;2.70;98243.00;;;;110681;1250;41149;-69
2022/02/24 01:26:24;;;;;;;9.10;4.30;;;;;2.70;98235.20;;;;110598;1253;41441;-69
2022/02/24 01:28:54;;;;;;;10.70;4.40;;;;;2.70;98234.20;;;;110522;1251;43706;-67
2022/02/24 01:31:25;;;;;;;11.50;4.50;;;;;2.74;98239.40;;;;110592;1251;41619;-71
2022/02/24 01:33:54;;;;;;;9.20;4.00;;;;;2.72;98242.00;;;;110573;1251;41426;-69
2022/02/24 01:36:28;;;;;;;11.00;4.00;;;;;2.76;98241.60;;;;110838;1250;41531;-70
2022/02/24 01:38:58;;;;;;;9.40;3.80;;;;;2.80;98240.80;;;;110501;1253;41156;-68
2022/02/24 01:41:30;;;;;;;10.50;4.20;;;;;2.74;98239.80;;;;110573;1251;41143;-69
2022/02/24 01:44:10;;;;;;;11.30;4.20;;;;;2.60;98240.80;;;;110685;1250;41743;-69
2022/02/24 01:46:42;;;;;;;11.30;3.80;;;;;2.60;98240.80;;;;110481;1253;41623;-69
2022/02/24 01:49:11;;;;;;;7.80;3.30;;;;;2.60;98241.20;;;;110615;1253;41974;-70
2022/02/24 01:51:41;;;;;;;8.50;3.70;;;;;2.60;98229.00;;;;110710;1250;41271;-70
2022/02/24 01:54:12;;;;;;;9.00;3.60;;;;;2.60;98231.00;;;;110524;1252;41144;-69
2022/02/24 01:56:42;;;;;;;8.50;3.60;;;;;2.60;98235.00;;;;110557;1251;41163;-68
2022/02/24 01:59:11;;;;;;;9.70;4.10;;;;;2.60;98233.20;;;;110676;1253;42204;-70
2022/02/24 02:01:42;;;;;;;9.60;4.10;;;;;2.60;98237.80;;;;110547;1253;41782;-69
2022/02/24 02:04:13;;;;;;;8.30;4.00;;;;;2.60;98240.40;;;;110604;1252;41169;-71
2022/02/24 02:06:44;;;;;;;9.70;3.90;;;;;2.60;98235.60;;;;110608;1251;41150;-69
2022/02/24 02:09:14;;;;;;;8.70;3.70;;;;;2.60;98234.40;;;;110801;1250;41716;-70
2022/02/24 02:11:44;;;;;;;7.90;3.70;;;;;2.52;98232.20;;;;110726;1251;42443;-70
2022/02/24 02:14:14;;;;;;;9.80;4.20;;;;;2.50;98238.80;;;;110664;1251;41138;-69
2022/02/24 02:16:45;;;;;;;9.20;4.00;;;;;2.48;98234.40;;;;110803;1251;41264;-71
2022/02/24 02:19:16;;;;;;;8.00;3.70;;;;;2.50;98240.20;;;;110629;1250;41310;-70
2022/02/24 02:21:46;;;;;;;11.50;4.20;;;;;2.50;98243.00;;;;110669;1251;41170;-70
2022/02/24 02:24:16;;;;;;;8.50;4.00;;;;;2.40;98245.20;;;;110493;1250;42438;-70
2022/02/24 02:26:49;;;;;;;8.20;3.90;;;;;2.40;98243.40;;;;110545;1253;41266;-69
2022/02/24 02:29:19;;;;;;;8.30;3.70;;;;;2.40;98246.60;;;;110738;1249;41206;-70
2022/02/24 02:31:49;;;;;;;9.80;3.80;;;;;2.36;98248.20;;;;110618;1253;41174;-70
2022/02/24 02:34:19;;;;;;;8.60;3.60;;;;;2.40;98248.40;;;;110578;1253;41269;-70
2022/02/24 02:36:49;;;;;;;9.20;3.80;;;;;2.40;98250.80;;;;110496;1250;41617;-68
2022/02/24 02:39:19;;;;;;;8.10;3.90;;;;;2.40;98252.00;;;;110535;1251;41256;-70
2022/02/24 02:41:49;;;;;;;9.70;3.70;;;;;2.40;98251.40;;;;110515;1252;41716;-69
2022/02/24 02:44:19;;;;;;;8.70;3.70;;;;;2.40;98252.00;;;;110198;1251;443255;-70
2022/02/24 02:46:49;;;;;;;11.00;4.40;;;;;2.50;98251.00;;;;110548;1251;42527;-70
2022/02/24 02:49:20;;;;;;;8.60;3.60;;;;;2.50;98255.80;;;;110687;1251;42429;-69
2022/02/24 02:51:52;;;;;;;;;;;;;2.50;98260.20;;;;110732;1251;41152;-70
2022/02/24 02:54:21;;;;;;;11.50;4.00;;;;;2.46;98256.00;;;;110562;1251;41158;-70
2022/02/24 02:56:52;;;;;;;11.50;4.00;;;;;2.40;98259.20;;;;110825;1250;41949;-71
2022/02/24 02:59:22;;;;;;;;;;;;;2.40;98262.60;;;;110745;1250;41148;-70
2022/02/24 03:01:54;;;;;;;8.80;3.80;;;;;2.40;98262.40;;;;110557;1253;41334;-69
2022/02/24 03:04:25;;;;;;;10.20;3.90;;;;;2.42;98264.60;;;;110602;1250;41152;-68
2022/02/24 03:06:57;;;;;;;9.20;3.50;;;;;2.50;98263.20;;;;110816;1250;41656;-69
2022/02/24 03:09:26;;;;;;;8.20;3.50;;;;;2.50;98260.00;;;;110702;1252;41154;-69
2022/02/24 03:11:58;;;;;;;9.00;3.70;;;;;2.54;98266.20;;;;110615;1251;41599;-68
2022/02/24 03:14:30;;;;;;;8.20;3.60;;;;;2.60;98266.60;;;;110778;1250;41249;-69
2022/02/24 03:17:00;;;;;;;8.70;3.80;;;;;2.60;98265.00;;;;110491;1253;41384;-68
2022/02/24 03:19:30;;;;;;;10.60;3.90;;;;;2.60;98266.60;;;;110506;1253;41152;-68
2022/02/24 03:21:59;;;;;;;10.20;3.70;;;;;2.60;98266.80;;;;110575;1251;41714;-69
2022/02/24 03:24:29;;;;;;;8.60;3.80;;;;;2.60;98276.00;;;;110513;1253;41160;-71
2022/02/24 03:27:01;;;;;;;8.20;3.50;;;;;2.64;98279.80;;;;110533;1252;41378;-69
2022/02/24 03:29:31;;;;;;;10.00;3.80;;;;;2.70;98281.40;;;;110695;1253;41879;-70
2022/02/24 03:32:01;;;;;;;10.80;3.80;;;;;2.70;98286.20;;;;110488;1251;41615;-69
2022/02/24 03:34:31;;;;;;;9.80;4.00;;;;;2.70;98282.00;;;;110552;1253;42561;-70
2022/02/24 03:37:01;;;;;;;8.60;3.40;;;;;2.70;98286.00;;;;110746;1251;41446;-69
2022/02/24 03:39:31;;;;;;;10.00;3.80;;;;;2.70;98289.20;;;;110697;1250;41481;-70
2022/02/24 03:42:01;;;;;;;9.00;3.90;;;;;2.70;98286.60;;;;110516;1253;42011;-69
2022/02/24 03:44:31;;;;;;;12.50;4.20;;;;;2.60;98293.80;;;;110520;1253;42116;-69
2022/02/24 03:47:02;;;;;;;7.90;3.20;;;;;2.50;98293.00;;;;110392;1253;41147;-70
2022/02/24 03:50:06;;;;;;;8.60;3.40;;;;;2.50;98293.40;;;;110745;1250;41200;-71
2022/02/24 03:52:36;;;;;;;9.00;3.30;;;;;2.50;98293.20;;;;110530;1250;41182;-70
2022/02/24 03:55:06;;;;;;;8.40;3.70;;;;;2.50;98291.60;;;;110465;1252;41206;-69
2022/02/24 03:57:36;;;;;;;9.40;4.20;;;;;2.58;98295.20;;;;110302;1253;41258;-70
2022/02/24 04:00:08;;;;;;;8.30;3.70;;;;;2.60;98296.60;;;;110604;1251;41142;-71
2022/02/24 04:02:41;;;;;;;12.30;4.20;;;;;2.60;98297.20;;;;110622;1251;41239;-69
2022/02/24 04:05:13;;;;;;;11.30;4.50;;;;;2.60;98291.40;;;;110458;1253;42647;-70
2022/02/24 04:07:43;;;;;;;8.00;3.20;;;;;2.50;98296.20;;;;110604;1253;42339;-70
2022/02/24 04:10:13;;;;;;;7.00;3.20;;;;;2.50;98299.80;;;;110743;1250;41609;-70
2022/02/24 04:12:43;;;;;;;10.40;3.80;;;;;2.50;98305.80;;;;110792;1250;41629;-70
2022/02/24 04:15:12;;;;;;;9.50;3.40;;;;;2.50;98300.40;;;;110585;1253;41146;-69
2022/02/24 04:17:42;;;;;;;9.00;3.60;;;;;2.50;98304.60;;;;110566;1251;41575;-68
2022/02/24 04:20:12;;;;;;;11.20;3.60;;;;;2.50;98304.00;;;;110406;1250;41154;-70
2022/02/24 04:22:43;;;;;;;8.80;3.50;;;;;2.50;98303.40;;;;110599;1253;41276;-72
2022/02/24 04:25:13;;;;;;;7.80;3.70;;;;;2.60;98309.60;;;;110704;1253;42543;-71
2022/02/24 04:27:49;;;;;;;7.80;3.30;;;;;2.60;98311.40;;;;110750;1250;41153;-70
2022/02/24 04:30:20;;;;;;;10.20;4.50;;;;;2.60;98314.40;;;;110753;1252;41160;-71
2022/02/24 04:32:51;;;;;;;13.60;4.30;;;;;2.60;98318.00;;;;110786;1252;41355;-69
2022/02/24 04:35:21;;;;;;;10.10;4.20;;;;;2.60;98315.60;;;;110733;1251;41192;-70
2022/02/24 04:37:51;;;;;;;8.70;3.70;;;;;2.64;98318.00;;;;110803;1249;41191;-70
2022/02/24 04:40:21;;;;;;;9.10;4.00;;;;;2.70;98323.40;;;;110658;1251;41774;-67
2022/02/24 04:42:52;;;;;;;11.70;4.80;;;;;2.70;98321.00;;;;110536;1251;41348;-69
2022/02/24 04:45:21;;;;;;;10.20;3.70;;;;;2.60;98324.60;;;;110685;1250;41801;-69
2022/02/24 04:47:51;;;;;;;9.60;3.90;;;;;2.60;98332.00;;;;110504;1253;41353;-71
2022/02/24 04:50:20;;;;;;;9.90;3.90;;;;;2.66;98335.80;;;;110550;1253;41162;-68
2022/02/24 04:52:50;;;;;;;12.40;4.30;;;;;2.70;98335.60;;;;110608;1250;42034;-69
2022/02/24 04:55:20;;;;;;;12.20;5.20;;;;;2.70;98337.60;;;;110673;1250;41160;-70
2022/02/24 04:57:50;;;;;;;14.30;6.10;;;;;2.70;98339.00;;;;110617;1251;41261;-69
2022/02/24 05:00:20;;;;;;;12.80;5.80;;;;;2.70;98340.60;;;;110650;1251;41146;-71
2022/02/24 05:02:49;;;;;;;9.70;4.30;;;;;2.70;98339.60;;;;110758;1251;41265;-70
2022/02/24 05:05:20;;;;;;;;;;;;;2.70;98347.60;;;;110594;1250;41628;-69
2022/02/24 05:07:49;;;;;;;11.50;4.80;;;;;2.70;98350.20;;;;110494;1253;41725;-68
2022/02/24 05:10:23;;;;;;;10.30;4.70;;;;;2.70;98345.20;;;;110530;1250;42573;-69
2022/02/24 05:12:52;;;;;;;10.70;4.80;;;;;2.70;98342.60;;;;110524;1251;41256;-68
2022/02/24 05:15:23;;;;;;;12.70;5.00;;;;;2.64;98340.80;;;;110519;1251;41151;-70
2022/02/24 05:17:53;;;;;;;10.20;4.50;;;;;2.60;98345.20;;;;110510;1252;41146;-69
2022/02/24 05:20:26;;;;;;;11.30;4.90;;;;;2.60;98346.60;;;;110615;1253;41628;-68
2022/02/24 05:22:55;;;;;;;11.40;4.40;;;;;2.50;98347.80;;;;110596;1253;41268;-69
2022/02/24 05:25:26;;;;;;;10.30;4.60;;;;;2.50;98350.00;;;;110674;1250;41345;-69
2022/02/24 05:27:56;;;;;;;9.80;4.20;;;;;2.44;98344.20;;;;110544;1253;41269;-68
2022/02/24 05:30:26;;;;;;;9.50;4.10;;;;;2.50;98350.80;;;;110671;1250;41607;-69
2022/02/24 05:32:56;;;;;;;10.40;4.30;;;;;2.50;98352.80;;;;110479;1252;41621;-67
2022/02/24 05:35:28;;;;;;;9.70;4.30;;;;;2.58;98350.20;;;;110696;1250;41161;-65
2022/02/24 05:37:57;;;;;;;9.40;3.70;;;;;2.60;98352.00;;;;110423;1250;42089;-67
2022/02/24 05:40:27;;;;;;;9.20;3.90;;;;;2.60;98349.40;;;;110705;1250;41165;-67
2022/02/24 05:42:58;;;;;;;9.70;3.80;;;;;2.70;98353.80;;;;110591;1250;41140;-66
2022/02/24 05:45:29;;;;;;;11.00;4.20;;;;;2.70;98357.60;;;;110584;1252;40741;-67
2022/02/24 05:47:58;;;;;;;9.90;4.20;;;;;2.70;98360.20;;;;110525;1253;41311;-67
2022/02/24 05:50:29;;;;;;;10.40;4.80;;;;;2.70;98362.20;;;;110536;1250;41134;-65
2022/02/24 05:53:02;;;;;;;9.40;4.00;;;;;2.80;98364.20;;;;110573;1252;42069;-68
2022/02/24 05:55:33;;;;;;;11.80;4.00;;;;;2.90;98366.00;;;;110778;1250;42377;-67
2022/02/24 05:58:03;;;;;;;10.10;4.30;;;;;2.90;98364.20;;;;110510;1251;41163;-66
2022/02/24 06:00:32;;;;;;;8.40;3.40;;;;;2.96;98370.20;;;;110516;1252;41154;-68
2022/02/24 06:03:02;;;;;;;9.40;3.90;;;;;3.00;98368.40;;;;110555;1253;41244;-66
2022/02/24 06:05:32;;;;;;;9.60;4.20;;;;;3.00;98369.40;;;;110531;1253;41136;-67
2022/02/24 06:08:01;;;;;;;9.50;4.00;;;;;3.00;98377.60;;;;110807;1250;41146;-66
2022/02/24 06:10:31;;;;;;;9.50;3.80;;;;;3.10;98380.40;;;;110579;1253;41136;-66
2022/02/24 06:13:00;;;;;;;10.10;4.00;;;;;3.10;98377.40;;;;110494;1250;41608;-67
2022/02/24 06:15:30;;;;;;;10.00;3.80;;;;;3.10;98378.80;;;;110792;1250;41445;-67
2022/02/24 06:18:06;;;;;;;9.90;3.80;;;;;3.02;98374.40;;;;110775;1250;41350;-67
2022/02/24 06:20:36;;;;;;;10.00;4.20;;;;;3.10;98378.20;;;;110597;1252;41651;-67
2022/02/24 06:23:05;;;;;;;10.10;3.90;;;;;3.10;98378.20;;;;110758;1250;41192;-67
2022/02/24 06:25:34;;;;;;;10.90;4.20;;;;;3.18;98383.60;;;;110500;1250;42311;-66
2022/02/24 06:28:04;;;;;;;13.40;4.80;;;;;3.20;98384.00;;;;110712;1250;41569;-66
2022/02/24 06:30:33;;;;;;;11.00;4.20;;;;;3.22;98387.60;;;;110555;1253;41650;-65
2022/02/24 06:33:04;;;;;;;10.60;4.40;;;;;3.30;98388.00;;;;110578;1253;41972;-65
2022/02/24 06:35:33;;;;;;;9.90;4.10;;;;;3.32;98388.00;;;;110779;1250;41599;-67
2022/02/24 06:38:03;;;;;;;9.60;3.90;;;;;3.40;98391.20;;;;110594;1251;42027;-67
2022/02/24 06:40:32;;;;;;;10.80;4.10;;;;;3.40;98392.20;;;;110800;1250;41779;-68
2022/02/24 06:43:02;;;;;;;9.80;4.20;;;;;3.40;98392.60;;;;110529;1250;41889;-66
2022/02/24 06:45:31;;;;;;;12.10;4.70;;;;;3.40;98396.00;;;;110489;1253;41961;-68
2022/02/24 06:48:01;;;;;;;10.20;4.30;;;;;3.30;98395.20;;;;110807;1250;41168;-67
2022/02/24 06:50:31;;;;;;;12.00;4.80;;;;;3.24;98401.60;;;;110607;1250;41718;-67
2022/02/24 06:53:02;;;;;;;11.30;4.80;;;;;3.10;98396.00;;;;110557;1252;41635;-65
2022/02/24 06:55:32;;;;;;;12.80;4.90;;;;;3.00;98394.20;;;;110493;1250;42550;-64
2022/02/24 06:58:03;;;;;;;12.10;5.00;;;;;2.90;98396.00;;;;110782;1250;42422;-70
2022/02/24 07:00:33;;;;;;;12.50;5.00;;;;;2.90;98396.00;;;;110611;1253;41159;-66
2022/02/24 07:03:06;;;;;;;10.70;4.20;;;;;2.86;98404.00;;;;110567;1251;41603;-64
2022/02/24 07:05:37;;;;;;;8.80;3.90;;;;;2.90;98401.40;;;;110575;1251;41190;-66
2022/02/24 07:08:07;;;;;;;12.80;4.90;;;;;2.94;98399.80;;;;110567;1253;41560;-65
2022/02/24 07:10:37;;;;;;;11.10;5.40;;;;;3.00;98403.20;;;;110559;1253;41151;-65
2022/02/24 07:13:07;;;;;;;12.00;4.90;;;;;2.94;98395.20;;;;110680;1251;42377;-66
2022/02/24 07:15:41;;;;;;;12.60;5.90;;;;;2.92;98391.60;;;;110731;1252;41266;-65
2022/02/24 07:18:10;;;;;;;11.30;5.10;;;;;2.88;98393.60;;;;110554;1252;41263;-67
2022/02/24 07:20:40;;;;;;;12.70;5.60;;;;;2.90;98393.60;;;;110687;1251;41480;-67
2022/02/24 07:23:09;;;;;;;12.80;5.20;;;;;2.90;98395.40;;;;110499;1251;41155;-66
2022/02/24 07:25:39;;;;;;;9.70;4.60;;;;;3.00;98403.80;;;;110594;1252;41719;-64
2022/02/24 07:28:10;;;;;;;10.70;5.30;;;;;3.10;98401.60;;;;110688;1250;41150;-66
2022/02/24 07:30:43;;;;;;;10.50;4.20;;;;;3.16;98410.60;;;;110511;1250;41251;-65
2022/02/24 07:33:12;;;;;;;11.80;4.80;;;;;3.10;98413.00;;;;110789;1250;41151;-64
2022/02/24 07:35:42;;;;;;;11.80;4.70;;;;;3.20;98413.40;;;;110552;1251;42368;-66
2022/02/24 07:38:12;;;;;;;8.90;4.10;;;;;3.34;98410.80;;;;110634;1250;41160;-67
2022/02/24 07:40:42;;;;;;;12.00;4.70;;;;;3.42;98416.20;;;;110638;1250;41430;-66
2022/02/24 07:43:13;;;;;;;13.90;5.00;;;;;3.50;98409.00;;;;110556;1252;41168;-66
2022/02/24 07:45:43;;;;;;;13.30;5.30;;;;;3.40;98416.60;;;;110736;1252;41830;-65
2022/02/24 07:48:15;;;;;;;12.80;5.90;;;;;3.40;98408.40;;;;110611;1251;41159;-66
2022/02/24 07:50:44;;;;;;;14.50;5.80;;;;;3.20;98417.80;;;;110756;1250;41859;-66
2022/02/24 07:53:16;;;;;;;11.50;5.20;;;;;3.20;98416.40;;;;110648;1253;41157;-66
2022/02/24 07:55:46;;;;;;;11.40;5.30;;;;;3.20;98414.00;;;;110508;1253;41197;-64
2022/02/24 07:58:21;;;;;;;13.40;5.50;;;;;3.08;98415.20;;;;110560;1253;41894;-64
2022/02/24 08:00:50;;;;;;;14.10;6.20;;;;;3.04;98419.20;;;;110565;1252;41155;-63
2022/02/24 08:03:20;;;;;;;18.30;6.20;;;;;3.02;98418.20;;;;110518;1253;42419;-63
2022/02/24 08:05:51;;;;;;;13.00;5.50;;;;;2.92;98421.20;;;;110376;1253;41144;-67
2022/02/24 08:08:21;;;;;;;15.80;5.60;;;;;3.00;98420.00;;;;110525;1253;41516;-65
2022/02/24 08:10:51;;;;;;;12.40;5.60;;;;;3.10;98423.40;;;;110719;1251;41262;-64
2022/02/24 08:13:22;;;;;;;12.40;5.70;;;;;3.00;98418.80;;;;110613;1253;42106;-69
2022/02/24 08:15:53;;;;;;;15.10;5.40;;;;;2.90;98425.00;;;;110515;1253;41174;-64
2022/02/24 08:18:23;;;;;;;14.30;6.10;;;;;3.00;98426.60;;;;110455;1253;41436;-64
2022/02/24 08:20:52;;;;;;;15.20;5.90;;;;;2.92;98423.40;;;;110653;1251;41658;-69
2022/02/24 08:23:23;;;;;;;14.60;5.60;;;;;2.90;98418.00;;;;110534;1250;41205;-65
2022/02/24 08:25:55;;;;;;;14.90;6.30;;;;;2.92;98421.40;;;;110661;1253;41140;-64
2022/02/24 08:28:25;;;;;;;17.60;6.40;;;;;2.86;98423.60;;;;110475;1253;41730;-66
2022/02/24 08:30:54;;;;;;;15.10;6.20;;;;;2.94;98426.00;;;;110455;1254;41270;-66
2022/02/24 08:33:26;;;;;;;12.20;6.10;;;;;2.92;98428.00;;;;110559;1252;41159;-64
2022/02/24 08:35:55;;;;;;;13.60;5.70;;;;;3.00;98421.00;;;;110629;1252;41263;-64
2022/02/24 08:38:27;;;;;;;14.90;6.20;;;;;3.10;98425.20;;;;110583;1251;41604;-63
2022/02/24 08:41:16;;;;;;;13.50;5.10;;;;;3.10;98418.00;;;;110527;1253;41257;-66
2022/02/24 08:43:45;;;;;;;14.30;5.90;;;;;3.20;98420.40;;;;110434;1254;41191;-67
2022/02/24 08:46:15;;;;;;;16.00;6.60;;;;;3.20;98422.20;;;;110590;1251;41325;-62
2022/02/24 08:48:44;;;;;;;12.50;5.60;;;;;3.20;98420.00;;;;110618;1252;41159;-68
2022/02/24 08:51:13;;;;;;;12.60;5.50;;;;;3.30;98419.20;;;;110568;1252;41136;-67
2022/02/24 08:53:43;;;;;;;18.80;6.70;;;;;3.40;98418.40;;;;110464;1255;41615;-63
2022/02/24 08:56:12;;;;;;;14.90;7.00;;;;;3.40;98420.20;;;;110660;1251;41644;-74
2022/02/24 08:58:42;;;;;;;15.30;7.30;;;;;3.38;98420.20;;;;110370;1253;42081;-62
2022/02/24 09:01:13;;;;;;;17.50;7.40;;;;;3.30;98418.00;;;;110679;1250;41370;-68
2022/02/24 09:03:43;;;;;;;19.50;8.20;;;;;3.30;98417.40;;;;110597;1254;41463;-72
2022/02/24 09:06:16;;;;;;;15.80;7.60;;;;;3.28;98424.60;;;;110275;1253;42208;-66
2022/02/24 09:08:45;;;;;;;17.20;8.10;;;;;3.20;98417.40;;;;110514;1252;43137;-63
2022/02/24 09:11:14;;;;;;;14.00;6.90;;;;;3.20;98419.40;;;;110544;1253;42444;-63
2022/02/24 09:13:44;;;;;;;14.90;6.20;;;;;3.30;98415.80;;;;110713;1251;41478;-68
2022/02/24 09:16:13;;;;;;;18.20;7.10;;;;;3.38;98408.40;;;;110587;1253;41246;-64
2022/02/24 09:18:42;;;;;;;17.50;7.50;;;;;3.30;98409.00;;;;110667;1251;41262;-59
2022/02/24 09:21:11;;;;;;;15.40;6.40;;;;;3.38;98407.60;;;;110665;1251;41210;-62
2022/02/24 09:23:44;;;;;;;13.90;6.40;;;;;3.48;98404.20;;;;110616;1251;41625;-65
2022/02/24 09:26:14;;;;;;;16.20;7.30;;;;;3.60;98411.00;;;;110530;1253;41271;-65
2022/02/24 09:28:43;;;;;;;18.40;8.30;;;;;3.70;98406.80;;;;110377;1255;41142;-61
2022/02/24 09:31:13;;;;;;;17.50;6.50;;;;;3.74;98403.20;;;;110382;1255;41635;-64
2022/02/24 09:33:42;;;;;;;16.80;6.80;;;;;4.00;98397.80;;;;110371;1253;41146;-65
2022/02/24 09:36:15;;;;;;;15.10;7.40;;;;;4.12;98397.20;;;;110385;1254;41694;-65
2022/02/24 09:38:44;;;;;;;15.20;6.60;;;;;4.18;98401.80;;;;110468;1253;41160;-64
2022/02/24 09:41:14;;;;;;;16.40;7.90;;;;;4.30;98397.40;;;;110436;1253;41310;-66
2022/02/24 09:43:44;;;;;;;15.30;7.40;;;;;4.30;98396.60;;;;110373;1250;41951;-67
2022/02/24 09:46:17;;;;;;;17.20;7.50;;;;;4.24;98393.80;;;;110517;1253;41617;-66
2022/02/24 09:48:46;;;;;;;18.50;8.40;;;;;4.30;98393.20;;;;110485;1253;41203;-67
2022/02/24 09:51:18;;;;;;;16.90;8.00;;;;;4.30;98392.20;;;;110496;1253;42642;-67
2022/02/24 09:53:48;;;;;;;15.80;7.20;;;;;4.10;98389.00;;;;110463;1253;41152;-63
2022/02/24 09:56:21;;;;;;;19.30;8.70;;;;;4.14;98387.40;;;;110518;1253;41536;-66
2022/02/24 09:58:52;;;;;;;21.00;8.70;;;;;4.02;98387.20;;;;110577;1253;41752;-65
2022/02/24 10:01:22;;;;;;;19.50;7.50;;;;;4.00;98388.00;;;;110560;1253;41716;-65
2022/02/24 10:03:57;;;;;;;20.80;8.90;;;;;4.00;98384.80;;;;110582;1250;41712;-66
2022/02/24 10:06:37;;;;;;;18.70;7.30;;;;;3.94;98387.20;;;;110794;1250;41260;-66
2022/02/24 10:09:08;;;;;;;15.80;6.10;;;;;4.00;98385.80;;;;110779;1250;41150;-68
2022/02/24 10:11:41;;;;;;;16.90;6.90;;;;;4.20;98381.40;;;;110490;1253;41149;-64
2022/02/24 10:14:12;;;;;;;13.70;5.40;;;;;4.30;98379.80;;;;110556;1253;42003;-66
2022/02/24 10:16:59;;;;;;;15.10;6.70;;;;;4.50;98373.40;;;;110611;1252;42423;-65
2022/02/24 10:19:28;;;;;;;18.70;7.20;;;;;4.70;98365.80;;;;110660;1251;41264;-66
2022/02/24 10:22:31;;;;;;;12.20;5.70;;;;;4.64;98362.00;;;;110810;1250;41155;-64
2022/02/24 10:25:15;;;;;;;16.20;7.10;;;;;4.80;98359.00;;;;110785;1252;41249;-69
2022/02/24 10:27:52;;;;;;;14.30;6.50;;;;;5.00;98359.20;;;;110776;1251;41150;-68
2022/02/24 10:30:22;;;;;;;16.40;7.30;;;;;5.10;98358.40;;;;110913;1251;42910;-66
2022/02/24 10:32:55;;;;;;;13.80;6.80;;;;;5.10;98354.20;;;;110732;1250;41301;-65
2022/02/24 10:35:27;;;;;;;14.70;6.80;;;;;5.30;98351.80;;;;110598;1251;41145;-68
2022/02/24 10:38:10;;;;;;;10.50;5.00;;;;;5.30;98342.40;;;;110773;1251;41583;-65
2022/02/24 10:40:46;;;;;;;12.70;6.10;;;;;5.50;98338.40;;;;110563;1253;41264;-68
2022/02/24 10:43:31;;;;;;;17.50;7.10;;;;;5.34;98341.20;;;;110642;1252;41162;-67
2022/02/24 10:46:09;;;;;;;14.40;6.90;;;;;5.20;98340.60;;;;110777;1250;42553;-62
2022/02/24 10:48:54;;;;;;;15.10;7.60;;;;;5.10;98337.00;;;;110764;1250;41146;-63
2022/02/24 10:51:38;;;;;;;18.50;6.90;;;;;5.00;98333.40;;;;110555;1251;41268;-61
2022/02/24 10:54:28;;;;;;;15.90;7.00;;;;;4.92;98328.80;;;;110748;1250;41192;-67
2022/02/24 10:57:24;;;;;;;15.10;6.60;;;;;4.90;98325.40;;;;110763;1250;41287;-63
2022/02/24 11:00:07;;;;;;;14.70;5.90;;;;;4.84;98329.00;;;;110591;1252;41180;-62
2022/02/24 11:02:42;;;;;;;15.10;7.40;;;;;5.10;98328.60;;;;110682;1253;41600;-65
2022/02/24 11:05:21;;;;;;;14.30;6.60;;;;;5.02;98330.80;;;;110553;1253;41540;-72
2022/02/24 11:08:01;;;;;;;18.00;6.10;;;;;5.10;98330.00;;;;110399;1253;41219;-62
2022/02/24 11:10:38;;;;;;;18.70;6.30;;;;;5.10;98329.40;;;;110536;1253;41159;-67
2022/02/24 11:13:24;;;;;;;14.70;7.00;;;;;5.20;98327.40;;;;110587;1250;41208;-65
2022/02/24 11:16:01;;;;;;;14.30;5.90;;;;;5.20;98325.60;;;;110729;1250;41735;-65
2022/02/24 11:18:45;;;;;;;14.40;6.10;;;;;5.40;98318.20;;;;110744;1250;41416;-70
2022/02/24 11:21:26;;;;;;;15.70;6.40;;;;;5.60;98313.40;;;;110693;1250;41155;-68
2022/02/24 11:24:07;;;;;;;15.40;6.10;;;;;5.70;98318.40;;;;110538;1251;41154;-65
2022/02/24 11:26:57;;;;;;;14.30;6.20;;;;;5.90;98320.00;;;;110455;1253;41158;-63
2022/02/24 11:29:47;;;;;;;13.10;5.50;;;;;5.80;98316.00;;;;110791;1250;41997;-64
2022/02/24 11:32:27;;;;;;;14.60;6.10;;;;;6.00;98313.00;;;;110719;1250;42526;-67
2022/02/24 11:35:17;;;;;;;13.70;6.10;;;;;6.00;98307.20;;;;110559;1253;41202;-64
2022/02/24 11:38:07;;;;;;;13.70;5.00;;;;;5.94;98311.60;;;;110616;1253;42131;-61
2022/02/24 11:41:13;;;;;;;15.20;6.80;;;;;6.10;98301.80;;;;110711;1250;41351;-68
2022/02/24 11:43:56;;;;;;;12.90;5.40;;;;;6.02;98303.40;;;;110766;1250;41264;-61
2022/02/24 11:47:03;;;;;;;11.70;4.90;;;;;6.28;98299.00;;;;110731;1250;41156;-66
2022/02/24 11:49:55;;;;;;;13.30;5.30;;;;;7.22;98292.60;;;;110636;1252;41258;-67
2022/02/24 11:52:55;;;;;;;15.60;6.10;;;;;8.10;98288.20;;;;110483;1253;41249;-68
2022/02/24 11:55:52;;;;;;;13.00;5.50;;;;;9.22;98269.00;;;;110598;1252;41161;-70
2022/02/24 11:58:57;;;;;;;16.80;6.90;;;;;10.38;98275.00;;;;110562;1253;41193;-65
2022/02/24 12:01:38;;;;;;;13.60;5.80;;;;;10.66;98266.80;;;;110680;1252;41372;-69
2022/02/24 12:04:16;;;;;;;12.80;5.80;;;;;10.78;98266.80;;;;110593;1252;42825;-69
2022/02/24 12:06:48;;;;;;;13.20;5.40;;;;;11.10;98263.20;;;;110554;1253;41652;-68
2022/02/24 12:09:32;;;;;;;12.20;4.70;;;;;11.46;98257.00;;;;110480;1251;42118;-68
2022/02/24 12:12:20;;;;;;;12.50;5.10;;;;;11.64;98260.80;;;;110460;1254;41923;-68
2022/02/24 12:14:51;;;;;;;15.10;5.30;;;;;11.94;98255.00;;;;110531;1253;42088;-65
2022/02/24 12:17:22;;;;;;;12.50;5.30;;;;;12.20;98256.40;;;;110505;1253;41672;-70
2022/02/24 12:19:54;;;;;;;14.10;5.60;;;;;12.40;98248.60;;;;110645;1252;41146;-70
2022/02/24 12:22:32;;;;;;;16.80;6.20;;;;;12.46;98246.40;;;;110334;1253;40796;-67
2022/02/24 12:25:13;;;;;;;13.80;6.30;;;;;12.42;98240.40;;;;110489;1253;41706;-67
2022/02/24 12:28:06;;;;;;;13.80;5.20;;;;;12.52;98226.80;;;;110701;1252;41895;-67
2022/02/24 12:30:51;;;;;;;12.30;5.00;;;;;13.10;98232.40;;;;110387;1253;41166;-67
2022/02/24 12:33:27;;;;;;;11.80;4.90;;;;;12.90;98235.40;;;;110451;1253;41634;-68
2022/02/24 12:36:16;;;;;;;12.70;5.20;;;;;12.50;98233.80;;;;110427;1250;41142;-71
2022/02/24 12:38:58;;;;;;;13.90;5.80;;;;;12.10;98226.20;;;;110507;1253;40754;-68